createdAt,value
2018-12-13T00:01:01.640Z,23.73
2018-12-13T00:03:29.873Z,26.83
2018-12-13T00:05:58.100Z,24.63
2018-12-13T00:08:26.322Z,25.93
2018-12-13T00:10:54.553Z,25.33
2018-12-13T00:13:22.776Z,25.20
2018-12-13T00:15:51.089Z,22.90
2018-12-13T00:18:19.304Z,26.07
2018-12-13T00:20:47.616Z,25.27
2018-12-13T00:23:15.856Z,26.93
2018-12-13T00:25:44.180Z,24.20
2018-12-13T00:28:12.406Z,23.00
2018-12-13T00:30:40.637Z,29.07
2018-12-13T00:33:08.862Z,23.30
2018-12-13T00:35:37.068Z,26.83
2018-12-13T00:38:05.284Z,26.07
2018-12-13T00:40:33.504Z,24.10
2018-12-13T00:43:01.716Z,25.30
2018-12-13T00:45:29.932Z,28.00
2018-12-13T00:47:58.135Z,23.97
2018-12-13T00:50:26.354Z,24.03
2018-12-13T00:52:54.561Z,26.27
2018-12-13T00:55:22.864Z,25.23
2018-12-13T00:57:51.088Z,24.17
2018-12-13T01:00:19.393Z,23.23
2018-12-13T01:02:47.602Z,22.83
2018-12-13T01:05:15.825Z,24.10
2018-12-13T01:07:44.044Z,23.30
2018-12-13T01:10:12.250Z,24.97
2018-12-13T01:12:40.465Z,26.60
2018-12-13T01:15:08.765Z,23.20
2018-12-13T01:17:36.983Z,26.57
2018-12-13T01:20:05.529Z,26.57
2018-12-13T01:22:33.742Z,28.33
2018-12-13T01:25:01.949Z,22.87
2018-12-13T01:27:30.169Z,25.13
2018-12-13T01:29:58.360Z,24.80
2018-12-13T01:32:26.575Z,24.70
2018-12-13T01:34:54.772Z,25.57
2018-12-13T01:37:22.984Z,22.63
2018-12-13T01:39:51.670Z,24.57
2018-12-13T01:42:19.975Z,23.90
2018-12-13T01:44:48.202Z,22.80
2018-12-13T01:47:16.413Z,22.20
2018-12-13T01:49:44.625Z,25.27
2018-12-13T01:52:12.835Z,20.13
2018-12-13T01:54:41.048Z,24.23
2018-12-13T01:57:09.263Z,25.50
2018-12-13T01:59:37.473Z,24.63
2018-12-13T02:02:05.685Z,21.57
2018-12-13T02:04:33.895Z,21.20
2018-12-13T02:07:02.104Z,23.70
2018-12-13T02:09:30.307Z,23.70
2018-12-13T02:11:58.514Z,20.00
2018-12-13T02:14:26.732Z,22.13
2018-12-13T02:16:55.289Z,25.60
2018-12-13T02:19:23.504Z,28.10
2018-12-13T02:21:51.705Z,23.33
2018-12-13T02:24:19.913Z,21.40
2018-12-13T02:26:48.133Z,23.33
2018-12-13T02:29:16.411Z,27.97
2018-12-13T02:31:44.627Z,25.43
2018-12-13T02:34:12.829Z,25.87
2018-12-13T02:36:41.130Z,21.83
2018-12-13T02:39:09.427Z,22.40
2018-12-13T02:41:37.837Z,22.80
2018-12-13T02:44:06.128Z,22.50
2018-12-13T02:46:34.436Z,23.40
2018-12-13T02:49:08.779Z,22.50
2018-12-13T02:51:37.201Z,26.10
2018-12-13T02:54:05.572Z,19.87
2018-12-13T02:56:33.779Z,23.93
2018-12-13T02:59:01.990Z,19.00
2018-12-13T03:01:30.199Z,22.40
2018-12-13T03:03:58.423Z,26.07
2018-12-13T03:06:27.035Z,21.13
2018-12-13T03:08:55.255Z,23.80
2018-12-13T03:11:23.552Z,21.17
2018-12-13T03:13:51.854Z,18.50
2018-12-13T03:16:20.169Z,21.27
2018-12-13T03:18:48.458Z,19.80
2018-12-13T03:21:16.686Z,21.67
2018-12-13T03:23:44.892Z,21.37
2018-12-13T03:26:13.104Z,23.37
2018-12-13T03:28:41.413Z,21.83
2018-12-13T03:31:09.626Z,18.83
2018-12-13T03:33:37.852Z,19.50
2018-12-13T03:36:06.137Z,18.67
2018-12-13T03:38:34.352Z,20.40
2018-12-13T03:41:02.831Z,21.03
2018-12-13T03:43:31.051Z,20.23
2018-12-13T03:45:59.240Z,17.17
2018-12-13T03:48:27.462Z,19.57
2018-12-13T03:50:55.661Z,21.90
2018-12-13T03:53:23.946Z,23.33
2018-12-13T03:55:52.141Z,20.83
2018-12-13T03:58:20.365Z,19.60
2018-12-13T04:00:48.564Z,22.90
2018-12-13T04:03:16.791Z,22.97
2018-12-13T04:05:44.987Z,17.93
2018-12-13T04:08:13.192Z,19.87
2018-12-13T04:10:41.431Z,22.03
2018-12-13T04:13:09.712Z,20.60
2018-12-13T04:15:37.917Z,21.77
2018-12-13T04:18:06.210Z,20.67
2018-12-13T04:20:34.429Z,21.50
2018-12-13T04:23:02.848Z,16.40
2018-12-13T04:25:31.076Z,17.93
2018-12-13T04:27:59.347Z,19.37
2018-12-13T04:30:27.594Z,16.23
2018-12-13T04:32:55.830Z,19.30
2018-12-13T04:35:24.057Z,18.40
2018-12-13T04:37:52.372Z,19.80
2018-12-13T04:40:20.593Z,19.23
2018-12-13T04:42:48.858Z,20.07
2018-12-13T04:45:17.070Z,15.87
2018-12-13T04:47:45.303Z,18.90
2018-12-13T04:50:13.619Z,16.00
2018-12-13T04:52:41.844Z,13.90
2018-12-13T04:55:10.059Z,17.80
2018-12-13T04:57:38.291Z,17.80
2018-12-13T05:00:07.229Z,18.30
2018-12-13T05:02:35.448Z,15.87
2018-12-13T05:05:03.982Z,17.90
2018-12-13T05:07:32.296Z,18.30
2018-12-13T05:10:00.508Z,14.60
2018-12-13T05:12:28.749Z,16.90
2018-12-13T05:14:56.955Z,13.20
2018-12-13T05:17:25.205Z,18.97
2018-12-13T05:19:53.516Z,17.97
2018-12-13T05:22:21.744Z,14.73
2018-12-13T05:24:49.972Z,15.83
2018-12-13T05:27:18.209Z,13.07
2018-12-13T05:29:46.430Z,11.97
2018-12-13T05:32:14.677Z,15.17
2018-12-13T05:34:42.895Z,16.70
2018-12-13T05:37:11.128Z,16.23
2018-12-13T05:39:39.359Z,16.20
2018-12-13T05:42:07.568Z,15.60
2018-12-13T05:44:35.784Z,15.00
2018-12-13T05:47:04.012Z,17.37
2018-12-13T05:49:32.244Z,17.13
2018-12-13T05:52:00.503Z,13.67
2018-12-13T05:54:28.786Z,13.63
2018-12-13T05:56:56.991Z,17.93
2018-12-13T05:59:25.228Z,11.67
2018-12-13T06:01:53.442Z,14.67
2018-12-13T06:04:21.659Z,15.70
2018-12-13T06:06:49.871Z,10.17
2018-12-13T06:09:18.109Z,13.67
2018-12-13T06:11:46.324Z,17.00
2018-12-13T06:14:14.672Z,15.70
2018-12-13T06:16:42.884Z,13.20
2018-12-13T06:19:11.120Z,13.00
2018-12-13T06:21:39.364Z,17.07
2018-12-13T06:24:07.608Z,14.17
2018-12-13T06:26:35.818Z,13.50
2018-12-13T06:29:04.188Z,12.93
2018-12-13T06:31:32.412Z,15.80
2018-12-13T06:34:00.655Z,14.13
2018-12-13T06:36:28.884Z,13.57
2018-12-13T06:38:57.110Z,12.70
2018-12-13T06:41:25.308Z,14.20
2018-12-13T06:43:53.545Z,14.03
2018-12-13T06:46:21.764Z,13.00
2018-12-13T06:48:50.046Z,14.27
2018-12-13T06:51:18.249Z,16.70
2018-12-13T06:53:46.466Z,13.50
2018-12-13T06:56:14.760Z,14.47
2018-12-13T06:58:43.000Z,15.20
2018-12-13T07:01:11.215Z,13.90
2018-12-13T07:03:39.441Z,14.67
2018-12-13T07:06:07.687Z,17.33
2018-12-13T07:08:35.922Z,16.80
2018-12-13T07:11:04.173Z,18.37
2018-12-13T07:13:32.400Z,19.33
2018-12-13T07:16:00.647Z,17.50
2018-12-13T07:18:28.856Z,18.53
2018-12-13T07:20:57.097Z,20.80
2018-12-13T07:23:25.324Z,11.70
2018-12-13T07:25:53.553Z,14.47
2018-12-13T07:28:21.764Z,13.10
2018-12-13T07:30:50.077Z,13.33
2018-12-13T07:33:18.313Z,13.53
2018-12-13T07:35:46.556Z,15.40
2018-12-13T07:38:14.760Z,12.93
2018-12-13T07:40:42.989Z,12.80
2018-12-13T07:43:11.305Z,12.77
2018-12-13T07:45:39.526Z,12.73
2018-12-13T07:48:07.899Z,13.40
2018-12-13T07:50:36.152Z,17.30
2018-12-13T07:53:04.371Z,12.70
2018-12-13T07:55:32.612Z,9.50
2018-12-13T07:58:00.829Z,12.87
2018-12-13T08:00:29.129Z,11.43
2018-12-13T08:02:57.338Z,11.20
2018-12-13T08:05:25.566Z,10.90
2018-12-13T08:07:53.778Z,12.60
2018-12-13T08:10:22.133Z,9.20
2018-12-13T08:12:50.433Z,11.20
2018-12-13T08:15:18.668Z,9.73
2018-12-13T08:17:46.957Z,10.97
2018-12-13T08:20:15.181Z,13.57
2018-12-13T08:22:43.381Z,12.00
2018-12-13T08:25:11.685Z,11.10
2018-12-13T08:27:39.968Z,17.97
2018-12-13T08:30:08.365Z,11.63
2018-12-13T08:32:36.600Z,10.50
2018-12-13T08:35:05.058Z,14.07
2018-12-13T08:37:33.292Z,12.00
2018-12-13T08:40:01.534Z,11.20
2018-12-13T08:42:29.962Z,13.50
2018-12-13T08:44:58.204Z,14.17
2018-12-13T08:47:26.440Z,13.13
2018-12-13T08:49:54.679Z,13.80
2018-12-13T08:52:22.904Z,14.70
2018-12-13T08:54:51.145Z,14.70
2018-12-13T08:57:19.400Z,15.17
2018-12-13T08:59:47.660Z,14.90
2018-12-13T09:02:15.890Z,15.30
2018-12-13T09:04:44.135Z,16.03
2018-12-13T09:07:12.376Z,15.73
2018-12-13T09:09:40.629Z,17.53
2018-12-13T09:12:08.914Z,12.90
2018-12-13T09:14:37.135Z,17.13
2018-12-13T09:17:05.383Z,13.30
2018-12-13T09:19:33.607Z,14.40
2018-12-13T09:22:01.855Z,15.70
2018-12-13T09:24:30.089Z,15.80
2018-12-13T09:26:58.428Z,14.30
2018-12-13T09:29:26.664Z,16.50
2018-12-13T09:31:54.939Z,15.03
2018-12-13T09:34:23.185Z,15.27
2018-12-13T09:36:51.533Z,16.77
2018-12-13T09:39:19.761Z,18.77
2018-12-13T09:41:47.996Z,17.90
2018-12-13T09:44:17.511Z,40.50
2018-12-13T09:46:46.814Z,68.73
2018-12-13T09:49:15.139Z,65.33
2018-12-13T09:51:43.380Z,26.73
2018-12-13T09:54:11.635Z,19.70
2018-12-13T09:56:39.993Z,21.70
2018-12-13T09:59:08.224Z,20.43
2018-12-13T10:01:36.461Z,20.00
2018-12-13T10:04:04.768Z,22.13
2018-12-13T10:06:33.064Z,20.97
2018-12-13T10:09:01.321Z,17.80
2018-12-13T10:11:29.653Z,21.63
2018-12-13T10:13:57.896Z,17.47
2018-12-13T10:16:26.248Z,20.23
2018-12-13T10:18:54.443Z,20.00
2018-12-13T10:21:22.700Z,19.67
2018-12-13T10:23:50.931Z,16.83
2018-12-13T10:26:19.182Z,16.37
2018-12-13T10:28:47.413Z,14.83
2018-12-13T10:31:15.741Z,17.23
2018-12-13T10:33:44.086Z,24.17
2018-12-13T10:36:12.349Z,20.50
2018-12-13T10:38:40.676Z,19.70
2018-12-13T10:41:08.914Z,21.83
2018-12-13T10:43:37.158Z,17.67
2018-12-13T10:46:05.478Z,19.13
2018-12-13T10:48:33.778Z,22.07
2018-12-13T10:51:02.154Z,24.37
2018-12-13T10:53:30.412Z,23.87
2018-12-13T10:55:58.663Z,24.80
2018-12-13T10:58:26.892Z,21.50
2018-12-13T11:01:00.609Z,17.03
2018-12-13T11:03:34.262Z,21.27
2018-12-13T11:06:02.595Z,23.63
2018-12-13T11:08:30.812Z,17.20
2018-12-13T11:10:59.228Z,20.27
2018-12-13T11:13:27.520Z,22.30
2018-12-13T11:15:55.801Z,18.27
2018-12-13T11:18:24.152Z,20.17
2018-12-13T11:20:52.389Z,21.83
2018-12-13T11:23:20.624Z,19.43
2018-12-13T11:25:48.862Z,15.40
2018-12-13T11:28:28.488Z,18.43
2018-12-13T11:30:56.833Z,20.00
2018-12-13T11:33:25.101Z,26.27
2018-12-13T11:35:53.418Z,26.63
2018-12-13T11:38:21.612Z,23.17
2018-12-13T11:40:49.840Z,21.20
2018-12-13T11:43:18.063Z,18.50
2018-12-13T11:45:46.270Z,18.40
2018-12-13T11:48:14.497Z,19.00
2018-12-13T11:50:42.784Z,18.13
2018-12-13T11:53:11.000Z,22.33
2018-12-13T11:55:39.975Z,15.73
2018-12-13T11:58:10.319Z,16.27
2018-12-13T12:00:38.536Z,15.80
2018-12-13T12:03:06.923Z,16.30
2018-12-13T12:05:35.147Z,15.80
2018-12-13T12:08:03.394Z,14.23
2018-12-13T12:10:31.839Z,16.20
2018-12-13T12:13:00.127Z,15.87
2018-12-13T12:15:28.469Z,22.13
2018-12-13T12:17:56.704Z,20.60
2018-12-13T12:20:25.141Z,16.27
2018-12-13T12:22:53.481Z,28.97
2018-12-13T12:25:21.689Z,18.90
2018-12-13T12:27:49.976Z,20.57
2018-12-13T12:30:18.272Z,22.20
2018-12-13T12:32:46.511Z,17.67
2018-12-13T12:35:14.810Z,21.90
2018-12-13T12:37:43.044Z,18.00
2018-12-13T12:40:11.264Z,12.40
2018-12-13T12:42:39.489Z,10.07
2018-12-13T12:45:07.939Z,9.23
2018-12-13T12:47:36.156Z,8.70
2018-12-13T12:50:05.856Z,10.40
2018-12-13T12:52:34.151Z,10.50
2018-12-13T12:55:02.460Z,9.47
2018-12-13T12:57:30.697Z,11.17
2018-12-13T12:59:59.031Z,11.83
2018-12-13T13:02:28.373Z,7.77
2018-12-13T13:04:56.582Z,8.47
2018-12-13T13:07:24.821Z,8.77
2018-12-13T13:09:53.056Z,9.37
2018-12-13T13:12:21.285Z,13.00
2018-12-13T13:14:50.165Z,7.83
2018-12-13T13:17:18.399Z,9.57
2018-12-13T13:19:46.609Z,7.40
2018-12-13T13:22:14.832Z,8.80
2018-12-13T13:24:43.044Z,10.63
2018-12-13T13:27:11.273Z,11.03
2018-12-13T13:29:39.476Z,7.53
2018-12-13T13:32:07.694Z,7.47
2018-12-13T13:34:35.880Z,9.00
2018-12-13T13:37:04.169Z,11.00
2018-12-13T13:39:32.398Z,10.33
2018-12-13T13:42:00.605Z,10.20
2018-12-13T13:44:34.182Z,10.93
2018-12-13T13:47:02.388Z,9.17
2018-12-13T13:49:30.586Z,13.47
2018-12-13T13:51:58.816Z,11.30
2018-12-13T13:54:27.101Z,11.10
2018-12-13T13:56:55.289Z,9.27
2018-12-13T13:59:23.505Z,11.73
2018-12-13T14:01:51.731Z,8.67
2018-12-13T14:04:20.016Z,11.00
2018-12-13T14:06:48.264Z,9.47
2018-12-13T14:09:16.490Z,9.73
2018-12-13T14:11:44.676Z,8.83
2018-12-13T14:14:12.925Z,9.00
2018-12-13T14:16:41.213Z,11.97
2018-12-13T14:19:09.415Z,9.10
2018-12-13T14:21:37.645Z,9.83
2018-12-13T14:24:05.854Z,9.10
2018-12-13T14:26:34.043Z,8.70
2018-12-13T14:29:02.273Z,8.53
2018-12-13T14:31:30.468Z,12.73
2018-12-13T14:33:58.696Z,11.57
2018-12-13T14:36:26.891Z,16.30
2018-12-13T14:38:55.098Z,14.83
2018-12-13T14:41:23.284Z,11.73
2018-12-13T14:43:51.487Z,10.50
2018-12-13T14:46:19.684Z,14.57
2018-12-13T14:48:47.890Z,9.43
2018-12-13T14:51:16.083Z,15.60
2018-12-13T14:53:44.310Z,8.77
2018-12-13T14:56:12.589Z,9.00
2018-12-13T14:58:40.797Z,11.30
2018-12-13T15:01:08.985Z,12.43
2018-12-13T15:03:37.196Z,10.30
2018-12-13T15:06:05.389Z,11.33
2018-12-13T15:08:33.603Z,10.53
2018-12-13T15:11:01.896Z,12.73
2018-12-13T15:13:30.132Z,12.73
2018-12-13T15:15:58.416Z,14.23
2018-12-13T15:18:26.628Z,11.90
2018-12-13T15:20:54.836Z,12.60
2018-12-13T15:23:23.042Z,10.87
2018-12-13T15:25:51.248Z,9.70
2018-12-13T15:28:19.435Z,12.23
2018-12-13T15:30:47.713Z,12.13
2018-12-13T15:33:15.944Z,9.87
2018-12-13T15:35:44.263Z,11.30
2018-12-13T15:38:12.491Z,12.90
2018-12-13T15:40:40.712Z,13.30
2018-12-13T15:43:08.932Z,13.70
2018-12-13T15:45:37.232Z,14.60
2018-12-13T15:48:05.447Z,15.23
2018-12-13T15:50:33.761Z,13.67
2018-12-13T15:53:01.995Z,14.50
2018-12-13T15:55:30.300Z,17.57
2018-12-13T15:57:58.605Z,15.57
2018-12-13T16:00:26.824Z,15.17
2018-12-13T16:02:55.085Z,15.60
2018-12-13T16:05:23.320Z,19.77
2018-12-13T16:07:51.544Z,17.47
2018-12-13T16:10:19.840Z,13.33
2018-12-13T16:12:48.059Z,19.13
2018-12-13T16:15:16.278Z,11.53
2018-12-13T16:17:44.503Z,15.73
2018-12-13T16:20:12.815Z,17.67
2018-12-13T16:22:41.052Z,28.80
2018-12-13T16:25:09.279Z,25.47
2018-12-13T16:27:37.500Z,18.97
2018-12-13T16:30:07.327Z,18.23
2018-12-13T16:32:35.660Z,17.90
2018-12-13T16:35:04.080Z,19.83
2018-12-13T16:37:32.291Z,20.30
2018-12-13T16:40:00.530Z,25.63
2018-12-13T16:42:29.052Z,21.20
2018-12-13T16:44:57.300Z,21.00
2018-12-13T16:47:25.548Z,14.07
2018-12-13T16:49:53.780Z,18.80
2018-12-13T16:52:21.996Z,18.60
2018-12-13T16:54:50.234Z,14.57
2018-12-13T16:57:18.551Z,14.27
2018-12-13T16:59:46.867Z,13.03
2018-12-13T17:02:15.151Z,15.23
2018-12-13T17:04:43.414Z,15.67
2018-12-13T17:07:11.836Z,12.27
2018-12-13T17:09:40.163Z,13.83
2018-12-13T17:12:08.461Z,14.00
2018-12-13T17:14:37.776Z,13.40
2018-12-13T17:17:06.255Z,16.63
2018-12-13T17:19:34.723Z,16.50
2018-12-13T17:22:03.033Z,15.57
2018-12-13T17:24:33.822Z,19.30
2018-12-13T17:27:02.394Z,20.43
2018-12-13T17:29:30.641Z,21.87
2018-12-13T17:32:02.009Z,20.60
2018-12-13T17:34:30.342Z,19.10
2018-12-13T17:36:59.473Z,17.60
2018-12-13T17:39:27.744Z,13.77
2018-12-13T17:42:00.792Z,19.57
2018-12-13T17:44:29.010Z,19.93
2018-12-13T17:46:57.241Z,16.30
2018-12-13T17:49:25.645Z,18.70
2018-12-13T17:51:53.923Z,19.57
2018-12-13T17:54:22.148Z,19.27
2018-12-13T17:56:50.353Z,24.80
2018-12-13T17:59:18.574Z,20.60
2018-12-13T18:01:46.789Z,22.57
2018-12-13T18:04:15.108Z,24.03
2018-12-13T18:06:43.320Z,21.80
2018-12-13T18:09:11.543Z,22.77
2018-12-13T18:11:39.748Z,23.10
2018-12-13T18:14:08.075Z,20.57
2018-12-13T18:16:36.361Z,20.30
2018-12-13T18:19:04.663Z,19.27
2018-12-13T18:21:32.915Z,19.83
2018-12-13T18:24:01.199Z,17.60
2018-12-13T18:26:29.416Z,16.00
2018-12-13T18:28:57.652Z,18.40
2018-12-13T18:31:25.894Z,16.73
2018-12-13T18:34:00.219Z,17.27
2018-12-13T18:36:29.017Z,16.87
2018-12-13T18:38:57.433Z,21.77
2018-12-13T18:41:25.745Z,19.03
2018-12-13T18:43:53.949Z,25.43
2018-12-13T18:46:22.179Z,24.50
2018-12-13T18:48:50.410Z,19.23
2018-12-13T18:51:18.649Z,18.37
2018-12-13T18:53:46.938Z,18.03
2018-12-13T18:56:15.273Z,20.30
2018-12-13T18:58:43.698Z,18.40
2018-12-13T19:01:11.988Z,21.27
2018-12-13T19:03:40.227Z,18.30
2018-12-13T19:06:08.450Z,17.20
2018-12-13T19:08:38.385Z,18.63
2018-12-13T19:11:07.033Z,19.63
2018-12-13T19:13:35.223Z,18.47
2018-12-13T19:16:03.524Z,19.20
2018-12-13T19:18:31.765Z,20.03
2018-12-13T19:21:00.221Z,16.87
2018-12-13T19:23:28.727Z,16.13
2018-12-13T19:25:57.112Z,16.93
2018-12-13T19:28:25.670Z,17.80
2018-12-13T19:30:54.043Z,17.23
2018-12-13T19:33:22.384Z,17.67
2018-12-13T19:35:50.727Z,17.83
2018-12-13T19:38:19.152Z,21.10
2018-12-13T19:40:48.478Z,18.33
2018-12-13T19:43:16.941Z,20.60
2018-12-13T19:45:45.304Z,16.60
2018-12-13T19:48:13.684Z,18.83
2018-12-13T19:50:42.833Z,20.40
2018-12-13T19:53:11.287Z,18.03
2018-12-13T19:55:39.835Z,14.43
2018-12-13T19:58:08.158Z,23.60
2018-12-13T20:00:36.696Z,20.70
2018-12-13T20:03:05.180Z,19.80
2018-12-13T20:05:33.614Z,24.10
2018-12-13T20:08:02.114Z,36.77
2018-12-13T20:10:30.545Z,52.07
2018-12-13T20:12:58.814Z,44.10
2018-12-13T20:15:27.288Z,40.23
2018-12-13T20:17:55.615Z,31.27
2018-12-13T20:20:24.036Z,24.13
2018-12-13T20:22:52.320Z,19.87
2018-12-13T20:25:20.916Z,23.87
2018-12-13T20:27:49.256Z,20.90
2018-12-13T20:30:17.575Z,20.20
2018-12-13T20:32:46.213Z,22.70
2018-12-13T20:35:14.951Z,19.70
2018-12-13T20:37:43.420Z,18.70
2018-12-13T20:40:12.142Z,17.80
2018-12-13T20:42:40.530Z,20.33
2018-12-13T20:45:09.253Z,22.30
2018-12-13T20:47:37.718Z,21.77
2018-12-13T20:50:06.788Z,17.47
2018-12-13T20:52:35.123Z,22.80
2018-12-13T20:55:03.856Z,22.27
2018-12-13T20:57:32.261Z,20.83
2018-12-13T21:00:00.573Z,22.20
2018-12-13T21:02:28.950Z,16.40
2018-12-13T21:04:57.256Z,22.50
2018-12-13T21:07:30.940Z,19.90
2018-12-13T21:09:59.952Z,21.13
2018-12-13T21:12:28.473Z,21.43
2018-12-13T21:14:56.875Z,21.70
2018-12-13T21:17:25.338Z,22.57
2018-12-13T21:19:53.637Z,22.47
2018-12-13T21:22:21.908Z,20.03
2018-12-13T21:24:50.241Z,23.73
2018-12-13T21:27:18.521Z,21.20
2018-12-13T21:29:46.945Z,24.47
2018-12-13T21:32:15.382Z,19.90
2018-12-13T21:34:44.023Z,22.03
2018-12-13T21:37:12.315Z,21.90
2018-12-13T21:39:40.853Z,20.00
2018-12-13T21:42:09.842Z,18.20
2018-12-13T21:44:38.528Z,18.00
2018-12-13T21:47:07.304Z,16.07
2018-12-13T21:49:35.524Z,22.60
2018-12-13T21:52:04.077Z,20.20
2018-12-13T21:54:32.443Z,19.47
2018-12-13T21:57:01.257Z,16.87
2018-12-13T21:59:29.641Z,20.60
2018-12-13T22:01:58.827Z,18.30
2018-12-13T22:04:27.228Z,17.40
2018-12-13T22:06:56.789Z,15.30
2018-12-13T22:09:25.524Z,19.80
2018-12-13T22:11:53.936Z,17.00
2018-12-13T22:14:22.633Z,21.50
2018-12-13T22:16:50.914Z,18.47
2018-12-13T22:19:19.196Z,17.73
2018-12-13T22:21:47.509Z,16.57
2018-12-13T22:24:15.958Z,17.70
2018-12-13T22:26:44.417Z,15.53
2018-12-13T22:29:12.710Z,20.00
2018-12-13T22:31:41.093Z,18.10
2018-12-13T22:34:09.453Z,17.20
2018-12-13T22:36:37.982Z,18.60
2018-12-13T22:39:07.392Z,20.17
2018-12-13T22:41:36.469Z,15.87
2018-12-13T22:44:04.964Z,20.80
2018-12-13T22:46:33.497Z,16.90
2018-12-13T22:49:01.975Z,15.87
2018-12-13T22:51:30.430Z,16.57
2018-12-13T22:54:01.932Z,16.83
2018-12-13T22:56:30.487Z,17.40
2018-12-13T22:58:58.751Z,20.23
2018-12-13T23:01:27.502Z,18.20
2018-12-13T23:03:55.933Z,15.27
2018-12-13T23:06:24.255Z,18.47
2018-12-13T23:08:52.488Z,17.90
2018-12-13T23:11:20.698Z,17.50
2018-12-13T23:13:48.937Z,18.50
2018-12-13T23:16:17.228Z,19.97
2018-12-13T23:18:45.436Z,17.53
2018-12-13T23:21:13.780Z,17.17
2018-12-13T23:23:42.035Z,16.53
2018-12-13T23:26:10.280Z,16.23
2018-12-13T23:28:38.511Z,19.20
2018-12-13T23:31:06.747Z,27.60
2018-12-13T23:33:35.039Z,18.37
2018-12-13T23:36:03.372Z,20.53
2018-12-13T23:38:31.732Z,15.50
2018-12-13T23:40:59.972Z,20.77
2018-12-13T23:43:28.263Z,21.87
2018-12-13T23:45:56.489Z,24.20
2018-12-13T23:48:24.755Z,19.33
2018-12-13T23:50:52.987Z,21.20
2018-12-13T23:53:21.274Z,19.87
2018-12-13T23:55:49.624Z,14.63
2018-12-13T23:58:17.868Z,22.80
